createdAt,value
2022-09-27T00:00:43.190Z,2.53
2022-09-27T00:03:45.718Z,2.95
2022-09-27T00:06:47.864Z,2.22
2022-09-27T00:09:49.916Z,2.55
2022-09-27T00:12:52.327Z,2.75
2022-09-27T00:16:03.417Z,2.45
2022-09-27T00:19:08.748Z,2.25
2022-09-27T00:22:10.999Z,2.33
2022-09-27T00:25:13.125Z,2.15
2022-09-27T00:28:15.369Z,3.28
2022-09-27T00:31:22.359Z,3.00
2022-09-27T00:34:25.781Z,2.22
2022-09-27T00:37:27.938Z,3.05
2022-09-27T00:40:30.052Z,2.10
2022-09-27T00:44:04.695Z,2.83
2022-09-27T00:47:25.108Z,3.58
2022-09-27T00:50:36.189Z,2.53
2022-09-27T00:53:49.406Z,3.15
2022-09-27T00:56:52.518Z,2.40
2022-09-27T01:00:15.497Z,2.08
2022-09-27T01:03:30.944Z,2.40
2022-09-27T01:06:33.086Z,3.45
2022-09-27T01:09:35.778Z,3.42
2022-09-27T01:12:48.248Z,2.75
2022-09-27T01:16:35.307Z,2.38
2022-09-27T01:19:56.135Z,2.53
2022-09-27T01:23:17.169Z,2.22
2022-09-27T01:27:01.052Z,1.90
2022-09-27T01:30:21.963Z,3.13
2022-09-27T01:33:47.838Z,3.55
2022-09-27T01:36:54.188Z,2.45
2022-09-27T01:40:20.736Z,4.20
2022-09-27T01:44:14.075Z,2.63
2022-09-27T01:47:32.159Z,3.25
2022-09-27T01:50:53.151Z,2.80
2022-09-27T01:53:58.781Z,2.60
2022-09-27T01:57:26.806Z,2.97
2022-09-27T02:00:30.055Z,2.60
2022-09-27T02:03:44.813Z,2.53
2022-09-27T02:07:12.144Z,3.65
2022-09-27T02:10:24.949Z,3.15
2022-09-27T02:13:38.512Z,4.65
2022-09-27T02:17:09.369Z,3.97
2022-09-27T02:20:20.092Z,2.95
2022-09-27T02:23:40.117Z,2.50
2022-09-27T02:26:51.586Z,2.58
2022-09-27T02:30:01.074Z,4.40
2022-09-27T02:33:03.672Z,5.90
2022-09-27T02:36:06.275Z,3.67
2022-09-27T02:39:09.024Z,5.00
2022-09-27T02:42:11.855Z,3.22
2022-09-27T02:45:17.513Z,2.25
2022-09-27T02:48:39.720Z,3.55
2022-09-27T02:51:41.965Z,3.00
2022-09-27T02:55:03.306Z,2.42
2022-09-27T02:58:54.680Z,2.80
2022-09-27T03:02:27.874Z,2.70
2022-09-27T03:05:53.426Z,3.13
2022-09-27T03:08:57.075Z,3.20
2022-09-27T03:11:59.602Z,3.17
2022-09-27T03:15:02.055Z,2.58
2022-09-27T03:18:23.353Z,3.63
2022-09-27T03:21:43.766Z,3.47
2022-09-27T03:24:46.245Z,3.67
2022-09-27T03:27:49.047Z,4.15
2022-09-27T03:30:51.596Z,3.35
2022-09-27T03:34:16.838Z,3.38
2022-09-27T03:37:19.019Z,2.80
2022-09-27T03:40:21.238Z,3.15
2022-09-27T03:43:23.447Z,3.85
2022-09-27T03:46:26.286Z,3.58
2022-09-27T03:49:28.560Z,3.28
2022-09-27T03:52:30.760Z,3.95
2022-09-27T03:55:33.087Z,3.42
2022-09-27T03:58:35.195Z,6.00
2022-09-27T04:01:39.069Z,3.95
2022-09-27T04:04:59.646Z,3.85
2022-09-27T04:08:02.013Z,4.28
2022-09-27T04:11:07.266Z,3.60
2022-09-27T04:14:13.137Z,4.55
2022-09-27T04:17:32.718Z,5.63
2022-09-27T04:20:57.578Z,5.53
2022-09-27T04:24:00.010Z,5.70
2022-09-27T04:27:02.426Z,5.80
2022-09-27T04:30:06.328Z,5.47
2022-09-27T04:33:30.999Z,4.68
2022-09-27T04:36:40.886Z,6.55
2022-09-27T04:39:51.860Z,6.07
2022-09-27T04:42:54.575Z,4.95
2022-09-27T04:45:57.438Z,8.13
2022-09-27T04:49:00.375Z,6.80
2022-09-27T04:52:04.071Z,7.47
2022-09-27T04:55:10.914Z,10.73
2022-09-27T04:58:13.260Z,10.57
2022-09-27T05:01:15.437Z,13.05
2022-09-27T05:04:40.433Z,11.82
2022-09-27T05:07:44.212Z,12.05
2022-09-27T05:10:58.618Z,14.10
2022-09-27T05:14:00.763Z,12.35
2022-09-27T05:17:04.599Z,12.45
2022-09-27T05:20:19.703Z,10.98
2022-09-27T05:23:38.093Z,9.88
2022-09-27T05:26:40.267Z,11.68
2022-09-27T05:29:42.448Z,13.38
2022-09-27T05:32:50.223Z,13.07
2022-09-27T05:36:02.380Z,10.50
2022-09-27T05:39:07.323Z,9.35
2022-09-27T05:42:11.660Z,8.95
2022-09-27T05:45:14.410Z,9.38
2022-09-27T05:48:16.715Z,7.03
2022-09-27T05:51:25.441Z,9.40
2022-09-27T05:54:29.664Z,10.13
2022-09-27T05:57:34.912Z,8.18
2022-09-27T06:00:40.248Z,9.20
2022-09-27T06:04:04.899Z,12.13
2022-09-27T06:07:36.885Z,7.93
2022-09-27T06:10:42.762Z,8.73
2022-09-27T06:13:45.174Z,7.40
2022-09-27T06:16:48.376Z,6.85
2022-09-27T06:19:50.688Z,8.40
2022-09-27T06:22:54.223Z,8.00
2022-09-27T06:26:00.774Z,8.60
2022-09-27T06:29:12.742Z,8.52
2022-09-27T06:32:21.566Z,8.85
2022-09-27T06:35:31.780Z,8.13
2022-09-27T06:38:34.375Z,6.38
2022-09-27T06:42:11.872Z,6.28
2022-09-27T06:45:31.835Z,7.68
2022-09-27T06:48:53.083Z,6.00
2022-09-27T06:51:57.183Z,7.55
2022-09-27T06:54:59.476Z,7.03
2022-09-27T06:58:20.632Z,6.63
2022-09-27T07:01:43.300Z,7.25
2022-09-27T07:04:54.847Z,7.43
2022-09-27T07:08:17.154Z,5.85
2022-09-27T07:11:20.232Z,7.53
2022-09-27T07:14:22.457Z,7.63
2022-09-27T07:17:25.865Z,6.30
2022-09-27T07:20:29.648Z,6.22
2022-09-27T07:23:32.015Z,5.53
2022-09-27T07:26:34.779Z,6.78
2022-09-27T07:29:37.957Z,5.55
2022-09-27T07:32:40.641Z,4.75
2022-09-27T07:35:45.425Z,6.55
2022-09-27T07:38:47.643Z,4.57
2022-09-27T07:41:53.158Z,4.93
2022-09-27T07:44:56.199Z,5.65
2022-09-27T07:48:17.572Z,5.38
2022-09-27T07:51:54.975Z,5.15
2022-09-27T07:55:19.226Z,4.18
2022-09-27T07:58:44.440Z,4.90
2022-09-27T08:01:46.784Z,6.55
2022-09-27T08:04:48.924Z,4.90
2022-09-27T08:07:56.635Z,4.05
2022-09-27T08:11:00.261Z,3.67
2022-09-27T08:14:02.616Z,4.55
2022-09-27T08:17:06.374Z,4.30
2022-09-27T08:20:28.048Z,4.53
2022-09-27T08:23:42.953Z,5.72
2022-09-27T08:26:50.596Z,4.40
2022-09-27T08:30:05.192Z,4.97
2022-09-27T08:33:07.361Z,4.28
2022-09-27T08:36:13.334Z,5.60
2022-09-27T08:39:16.360Z,4.90
2022-09-27T08:42:47.088Z,4.60
2022-09-27T08:45:56.046Z,3.55
2022-09-27T08:49:10.016Z,3.83
2022-09-27T08:52:32.054Z,3.90
2022-09-27T08:55:44.325Z,4.18
2022-09-27T08:59:21.282Z,3.37
2022-09-27T09:02:26.237Z,3.90
2022-09-27T09:05:36.511Z,3.20
2022-09-27T09:08:51.392Z,4.03
2022-09-27T09:12:27.580Z,3.65
2022-09-27T09:15:54.629Z,3.90
2022-09-27T09:19:21.386Z,3.45
2022-09-27T09:22:41.130Z,3.45
2022-09-27T09:26:02.089Z,6.23
2022-09-27T09:29:19.363Z,4.10
2022-09-27T09:32:52.230Z,5.07
2022-09-27T09:36:33.491Z,3.63
2022-09-27T09:39:57.852Z,3.05
2022-09-27T09:42:59.964Z,4.53
2022-09-27T09:46:09.930Z,4.78
2022-09-27T09:52:40.917Z,3.75
2022-09-27T09:55:51.388Z,4.03
2022-09-27T09:59:05.399Z,3.97
2022-09-27T10:02:40.468Z,3.83
2022-09-27T10:05:49.055Z,4.90
2022-09-27T10:08:54.820Z,3.70
2022-09-27T10:12:17.477Z,3.10
2022-09-27T10:15:24.313Z,3.65
2022-09-27T10:18:28.461Z,4.38
2022-09-27T10:21:32.799Z,3.08
2022-09-27T10:24:57.989Z,3.60
2022-09-27T10:28:46.060Z,3.58
2022-09-27T10:31:50.484Z,4.68
2022-09-27T10:34:55.739Z,5.10
2022-09-27T10:38:19.007Z,4.57
2022-09-27T10:41:32.753Z,3.63
2022-09-27T10:44:39.354Z,6.57
2022-09-27T10:47:59.009Z,4.68
2022-09-27T10:51:31.751Z,4.60
2022-09-27T10:54:37.284Z,4.28
2022-09-27T10:57:44.307Z,4.13
2022-09-27T11:00:56.723Z,4.65
2022-09-27T11:04:00.252Z,4.75
2022-09-27T11:07:20.343Z,3.60
2022-09-27T11:10:37.683Z,4.65
2022-09-27T11:13:41.887Z,4.53
2022-09-27T11:16:56.712Z,4.45
2022-09-27T11:20:09.094Z,3.97
2022-09-27T11:23:40.520Z,4.32
2022-09-27T11:26:50.162Z,4.20
2022-09-27T11:30:04.568Z,3.97
2022-09-27T11:34:02.226Z,4.50
2022-09-27T11:37:24.249Z,4.07
2022-09-27T11:40:44.929Z,4.45
2022-09-27T11:44:29.518Z,4.25
2022-09-27T11:47:43.597Z,4.43
2022-09-27T11:51:07.326Z,3.97
2022-09-27T11:54:23.172Z,4.30
2022-09-27T11:57:54.088Z,4.20
2022-09-27T12:01:28.675Z,3.97
2022-09-27T12:05:08.407Z,4.43
2022-09-27T12:08:23.595Z,6.82
2022-09-27T12:11:25.846Z,3.95
2022-09-27T12:14:45.571Z,4.30
2022-09-27T12:17:52.289Z,4.68
2022-09-27T12:20:55.589Z,4.65
2022-09-27T12:23:58.998Z,5.22
2022-09-27T12:27:15.724Z,5.22
2022-09-27T12:30:18.108Z,4.60
2022-09-27T12:33:40.080Z,4.82
2022-09-27T12:36:51.866Z,5.43
2022-09-27T12:40:15.334Z,4.93
2022-09-27T12:43:21.263Z,4.70
2022-09-27T12:46:54.511Z,6.05
2022-09-27T12:50:01.125Z,4.20
2022-09-27T12:53:24.921Z,3.53
2022-09-27T12:56:48.010Z,5.18
2022-09-27T13:00:19.446Z,5.07
2022-09-27T13:03:41.375Z,6.60
2022-09-27T13:06:57.109Z,5.13
2022-09-27T13:10:29.580Z,3.78
2022-09-27T13:13:36.867Z,4.88
2022-09-27T13:16:44.885Z,4.60
2022-09-27T13:19:48.686Z,5.05
2022-09-27T13:22:51.964Z,5.60
2022-09-27T13:26:45.771Z,5.13
2022-09-27T13:29:50.454Z,3.80
2022-09-27T13:33:10.978Z,6.32
2022-09-27T13:39:40.743Z,4.43
2022-09-27T13:43:13.333Z,5.25
2022-09-27T13:46:29.349Z,4.50
2022-09-27T13:49:46.201Z,4.75
2022-09-27T13:53:03.416Z,5.72
2022-09-27T13:56:26.530Z,4.03
2022-09-27T13:59:44.111Z,4.15
2022-09-27T14:03:12.080Z,3.85
2022-09-27T14:06:21.130Z,4.40
2022-09-27T14:09:30.741Z,5.45
2022-09-27T14:12:42.535Z,4.50
2022-09-27T14:15:48.190Z,4.63
2022-09-27T14:18:58.214Z,4.50
2022-09-27T14:22:16.570Z,4.40
2022-09-27T14:25:50.076Z,5.28
2022-09-27T14:28:54.724Z,5.10
2022-09-27T14:32:06.268Z,4.97
2022-09-27T14:35:40.702Z,6.53
2022-09-27T14:38:43.081Z,5.22
2022-09-27T14:41:53.699Z,5.28
2022-09-27T14:45:01.160Z,5.65
2022-09-27T14:48:19.875Z,5.18
2022-09-27T14:51:29.171Z,5.43
2022-09-27T14:54:31.858Z,4.60
2022-09-27T14:57:36.053Z,4.75
2022-09-27T15:00:38.771Z,5.90
2022-09-27T15:03:44.582Z,5.20
2022-09-27T15:06:48.286Z,5.10
2022-09-27T15:09:51.685Z,5.85
2022-09-27T15:13:01.589Z,6.32
2022-09-27T15:16:16.599Z,6.82
2022-09-27T15:19:27.966Z,5.72
2022-09-27T15:22:43.994Z,6.65
2022-09-27T15:26:01.181Z,5.22
2022-09-27T15:29:03.942Z,5.38
2022-09-27T15:32:07.851Z,7.10
2022-09-27T15:35:10.595Z,5.70
2022-09-27T15:38:47.554Z,6.22
2022-09-27T15:42:17.618Z,6.72
2022-09-27T15:45:36.575Z,5.93
2022-09-27T15:48:38.733Z,5.82
2022-09-27T15:51:46.983Z,7.47
2022-09-27T15:54:52.193Z,5.22
2022-09-27T15:58:21.820Z,6.80
2022-09-27T16:01:24.434Z,6.47
2022-09-27T16:04:31.284Z,7.07
2022-09-27T16:07:33.436Z,5.75
2022-09-27T16:10:41.709Z,5.57
2022-09-27T16:13:44.880Z,5.55
2022-09-27T16:16:59.098Z,6.63
2022-09-27T16:20:06.019Z,5.53
2022-09-27T16:23:08.835Z,4.97
2022-09-27T16:26:11.383Z,5.55
2022-09-27T16:29:14.991Z,5.32
2022-09-27T16:32:17.310Z,5.47
2022-09-27T16:35:21.138Z,5.15
2022-09-27T16:38:26.162Z,5.45
2022-09-27T16:41:28.329Z,4.82
2022-09-27T16:44:30.547Z,5.95
2022-09-27T16:47:32.825Z,12.07
2022-09-27T16:50:53.547Z,11.73
2022-09-27T16:53:55.795Z,8.18
2022-09-27T16:56:59.130Z,8.80
2022-09-27T17:00:01.875Z,5.97
2022-09-27T17:03:04.020Z,10.30
2022-09-27T17:06:06.373Z,8.48
2022-09-27T17:09:08.902Z,5.93
2022-09-27T17:12:12.150Z,5.93
2022-09-27T17:15:16.584Z,6.78
2022-09-27T17:18:18.746Z,8.10
2022-09-27T17:21:21.166Z,5.97
2022-09-27T17:24:23.294Z,4.57
2022-09-27T17:27:28.054Z,6.82
2022-09-27T17:30:30.186Z,6.18
2022-09-27T17:33:32.424Z,6.82
2022-09-27T17:36:35.596Z,5.63
2022-09-27T17:39:38.164Z,7.35
2022-09-27T17:42:40.331Z,5.45
2022-09-27T17:45:42.390Z,6.45
2022-09-27T17:49:02.917Z,9.27
2022-09-27T17:52:05.064Z,5.35
2022-09-27T17:55:07.505Z,5.22
2022-09-27T17:58:09.827Z,6.72
2022-09-27T18:01:12.209Z,6.82
2022-09-27T18:04:17.301Z,6.57
2022-09-27T18:07:20.065Z,6.05
2022-09-27T18:10:22.230Z,4.55
2022-09-27T18:13:25.224Z,6.47
2022-09-27T18:16:39.344Z,8.30
2022-09-27T18:19:44.232Z,6.10
2022-09-27T18:22:48.460Z,6.32
2022-09-27T18:25:56.055Z,8.20
2022-09-27T18:29:05.900Z,8.35
2022-09-27T18:32:10.816Z,7.68
2022-09-27T18:35:14.439Z,7.30
2022-09-27T18:38:18.712Z,7.78
2022-09-27T18:41:23.273Z,8.63
2022-09-27T18:44:25.550Z,7.15
2022-09-27T18:47:29.950Z,7.55
2022-09-27T18:50:39.345Z,7.68
2022-09-27T18:53:44.582Z,7.50
2022-09-27T18:56:53.070Z,7.57
2022-09-27T18:59:56.098Z,7.00
2022-09-27T19:03:00.838Z,6.70
2022-09-27T19:06:08.073Z,7.57
2022-09-27T19:09:13.870Z,7.95
2022-09-27T19:12:17.227Z,7.47
2022-09-27T19:15:21.823Z,9.93
2022-09-27T19:18:24.934Z,7.20
2022-09-27T19:21:29.646Z,9.30
2022-09-27T19:24:34.230Z,7.13
2022-09-27T19:27:42.458Z,7.53
2022-09-27T19:30:46.845Z,9.48
2022-09-27T19:33:52.397Z,8.05
2022-09-27T19:36:57.432Z,8.77
2022-09-27T19:39:59.535Z,7.85
2022-09-27T19:43:02.930Z,7.82
2022-09-27T19:46:06.997Z,9.65
2022-09-27T19:49:13.039Z,8.00
2022-09-27T19:52:18.536Z,7.18
2022-09-27T19:55:21.914Z,7.78
2022-09-27T19:58:24.164Z,8.23
2022-09-27T20:01:28.758Z,8.13
2022-09-27T20:04:32.885Z,7.80
2022-09-27T20:07:38.000Z,7.60
2022-09-27T20:10:40.429Z,6.80
2022-09-27T20:13:44.844Z,8.68
2022-09-27T20:16:47.565Z,8.13
2022-09-27T20:19:50.562Z,7.70
2022-09-27T20:22:54.386Z,7.30
2022-09-27T20:26:18.860Z,6.88
2022-09-27T20:29:21.642Z,9.75
2022-09-27T20:32:28.304Z,7.85
2022-09-27T20:35:32.887Z,9.00
2022-09-27T20:38:35.523Z,7.10
2022-09-27T20:41:42.721Z,7.38
2022-09-27T20:44:48.677Z,13.77
2022-09-27T20:47:53.304Z,6.80
2022-09-27T20:51:04.635Z,7.18
2022-09-27T20:54:10.687Z,9.93
2022-09-27T20:57:13.244Z,9.30
2022-09-27T21:00:16.280Z,9.18
2022-09-27T21:03:21.794Z,7.78
2022-09-27T21:06:24.633Z,6.95
2022-09-27T21:09:26.823Z,5.93
2022-09-27T21:12:30.051Z,8.35
2022-09-27T21:15:32.906Z,7.85
2022-09-27T21:18:36.285Z,7.05
2022-09-27T21:21:38.432Z,6.72
2022-09-27T21:24:40.706Z,7.00
2022-09-27T21:27:43.274Z,6.25
2022-09-27T21:30:45.594Z,6.30
2022-09-27T21:33:50.545Z,6.63
2022-09-27T21:36:52.761Z,5.70
2022-09-27T21:39:55.323Z,6.97
2022-09-27T21:42:57.983Z,7.25
2022-09-27T21:46:05.061Z,6.18
2022-09-27T21:49:07.249Z,6.28
2022-09-27T21:52:09.355Z,6.88
2022-09-27T21:55:11.502Z,5.63
2022-09-27T21:58:13.962Z,4.75
2022-09-27T22:01:20.847Z,6.70
2022-09-27T22:04:23.073Z,4.85
2022-09-27T22:07:25.358Z,5.30
2022-09-27T22:10:27.478Z,4.55
2022-09-27T22:13:29.693Z,5.50
2022-09-27T22:16:31.889Z,4.95
2022-09-27T22:19:34.083Z,4.38
2022-09-27T22:22:36.208Z,3.60
2022-09-27T22:25:38.664Z,4.15
2022-09-27T22:28:41.396Z,3.97
2022-09-27T22:31:43.600Z,4.13
2022-09-27T22:34:45.930Z,4.30
2022-09-27T22:37:48.205Z,4.18
2022-09-27T22:40:57.786Z,4.18
2022-09-27T22:44:01.691Z,3.65
2022-09-27T22:47:03.998Z,3.10
2022-09-27T22:50:06.612Z,3.08
2022-09-27T22:53:09.022Z,4.25
2022-09-27T22:56:15.419Z,4.10
2022-09-27T22:59:17.945Z,4.20
2022-09-27T23:02:20.222Z,3.25
2022-09-27T23:05:23.148Z,4.38
2022-09-27T23:08:25.319Z,3.92
2022-09-27T23:11:27.496Z,3.08
2022-09-27T23:14:30.002Z,3.55
2022-09-27T23:17:33.942Z,3.00
2022-09-27T23:20:43.801Z,3.13
2022-09-27T23:23:46.796Z,4.78
2022-09-27T23:27:08.870Z,3.45
2022-09-27T23:30:21.424Z,3.00
2022-09-27T23:33:23.617Z,2.90
2022-09-27T23:36:30.220Z,3.13
2022-09-27T23:39:33.595Z,2.95
2022-09-27T23:42:36.161Z,4.18
2022-09-27T23:45:38.918Z,3.70
2022-09-27T23:48:41.389Z,3.70
2022-09-27T23:51:45.419Z,3.92
2022-09-27T23:54:47.605Z,3.50
2022-09-27T23:57:50.748Z,5.47
